Time;durP1;ratioP1;P1;durP2;ratioP2;P2;SDS_P1;SDS_P2;PMS_P1;PMS_P2;Temp;Humidity;BMP_temperature;BMP_pressure;BME280_temperature;BME280_humidity;BME280_pressure;Samples;Min_cycle;Max_cycle;Signal;HPM_P1;HPM_P2
2023/07/20 00:02:00;;;;;;;8.90;4.20;;;18.00;99.90;;;;;;5116803;28;20197;-48
2023/07/20 00:04:26;;;;;;;8.55;4.22;;;17.90;99.90;;;;;;5116740;28;20169;-48
2023/07/20 00:06:51;;;;;;;9.30;4.68;;;18.00;99.90;;;;;;5116707;28;20166;-50
2023/07/20 00:09:17;;;;;;;9.07;4.65;;;18.00;99.90;;;;;;5115508;28;20201;-52
2023/07/20 00:11:53;;;;;;;7.38;4.10;;;17.90;99.90;;;;;;5116641;28;20602;-50
2023/07/20 00:14:19;;;;;;;8.60;4.57;;;17.90;99.90;;;;;;5116622;28;20152;-51
2023/07/20 00:16:55;;;;;;;6.70;4.07;;;17.90;99.90;;;;;;5116590;28;20173;-51
2023/07/20 00:19:22;;;;;;;8.85;4.18;;;17.90;99.90;;;;;;5116060;28;20216;-51
2023/07/20 00:21:48;;;;;;;10.80;4.35;;;17.80;99.90;;;;;;5116367;28;20249;-48
2023/07/20 00:24:13;;;;;;;7.20;3.90;;;17.80;99.90;;;;;;5116301;28;20268;-49
2023/07/20 00:26:39;;;;;;;6.85;4.18;;;17.80;99.90;;;;;;5115652;28;20174;-49
2023/07/20 00:29:05;;;;;;;9.50;4.10;;;17.80;99.90;;;;;;5116663;28;20683;-47
2023/07/20 00:31:31;;;;;;;7.22;3.78;;;17.80;99.90;;;;;;5116193;28;20215;-51
2023/07/20 00:33:56;;;;;;;7.82;4.32;;;17.70;99.90;;;;;;5116170;28;20542;-49
2023/07/20 00:36:22;;;;;;;6.78;4.00;;;17.70;99.90;;;;;;5116183;28;20169;-46
2023/07/20 00:38:47;;;;;;;8.82;4.10;;;17.60;99.90;;;;;;5116126;28;20169;-48
2023/07/20 00:41:13;;;;;;;9.45;3.92;;;17.60;99.90;;;;;;5116000;28;20258;-52
2023/07/20 00:43:39;;;;;;;8.68;4.38;;;17.50;99.90;;;;;;5116096;28;20556;-47
2023/07/20 00:46:05;;;;;;;8.52;4.00;;;17.40;99.90;;;;;;5115181;28;20169;-50
2023/07/20 00:48:31;;;;;;;7.90;3.90;;;17.40;99.90;;;;;;5115908;28;20172;-51
2023/07/20 00:50:58;;;;;;;9.70;4.07;;;17.40;99.90;;;;;;5115848;28;20173;-51
2023/07/20 00:53:24;;;;;;;8.70;3.97;;;17.40;99.90;;;;;;5115825;28;20176;-49
2023/07/20 00:55:50;;;;;;;8.60;4.57;;;17.30;99.90;;;;;;5115740;28;20166;-52
2023/07/20 00:58:16;;;;;;;6.88;4.00;;;17.30;99.90;;;;;;5115383;28;20246;-51
2023/07/20 01:00:41;;;;;;;7.80;3.90;;;17.20;99.90;;;;;;5115293;28;20236;-48
2023/07/20 01:03:07;;;;;;;8.98;4.22;;;17.10;99.90;;;;;;5115600;28;20248;-47
2023/07/20 01:06:11;;;;;;;7.00;3.70;;;17.10;99.90;;;;;;5115594;28;20172;-50
2023/07/20 01:09:00;;;;;;;5.88;3.80;;;17.00;99.90;;;;;;5091599;27;20188;-51
2023/07/20 01:11:43;;;;;;;6.82;4.13;;;16.90;99.90;;;;;;5114696;28;20567;-51
2023/07/20 01:14:10;;;;;;;5.10;3.90;;;16.90;99.90;;;;;;5115606;28;20191;-50
2023/07/20 01:16:35;;;;;;;7.70;4.00;;;16.90;99.90;;;;;;5115428;28;20624;-50
2023/07/20 01:19:01;;;;;;;6.40;4.45;;;16.90;99.90;;;;;;5115415;28;20251;-50
2023/07/20 01:21:59;;;;;;;6.75;4.07;;;16.80;99.90;;;;;;5115211;28;20276;-50
2023/07/20 01:24:47;;;;;;;9.98;4.43;;;16.80;99.90;;;;;;5080798;28;20185;-50
2023/07/20 01:27:25;;;;;;;8.75;4.45;;;16.80;99.90;;;;;;5104314;28;20196;-50
2023/07/20 01:30:15;;;;;;;9.43;4.60;;;16.80;99.90;;;;;;5115136;28;20165;-49
2023/07/20 01:32:42;;;;;;;7.75;4.32;;;16.80;99.90;;;;;;5114943;28;20173;-49
2023/07/20 01:35:11;;;;;;;6.47;4.53;;;16.70;99.90;;;;;;5115014;28;20209;-51
2023/07/20 01:37:37;;;;;;;7.95;4.30;;;16.70;99.90;;;;;;5113966;28;20255;-50
2023/07/20 01:40:03;;;;;;;6.53;4.55;;;16.60;99.90;;;;;;5114853;28;20197;-50
2023/07/20 01:42:29;;;;;;;6.80;4.30;;;16.60;99.90;;;;;;5114988;28;20530;-48
2023/07/20 01:44:55;;;;;;;6.85;4.18;;;16.50;99.90;;;;;;5114794;27;20173;-51
2023/07/20 01:47:20;;;;;;;6.20;4.68;;;16.60;99.90;;;;;;5114811;28;20177;-51
2023/07/20 01:49:46;;;;;;;8.40;4.63;;;16.50;99.90;;;;;;5114450;28;20172;-47
2023/07/20 01:52:12;;;;;;;7.55;4.85;;;16.50;99.90;;;;;;5114964;28;20173;-51
2023/07/20 01:54:37;;;;;;;6.32;4.43;;;16.50;99.90;;;;;;5114690;28;20170;-50
2023/07/20 01:57:04;;;;;;;8.07;4.65;;;16.40;99.90;;;;;;5115012;28;20252;-50
2023/07/20 01:59:29;;;;;;;5.53;4.85;;;16.30;99.90;;;;;;5114580;28;20567;-51
2023/07/20 02:01:55;;;;;;;8.98;4.80;;;16.30;99.90;;;;;;5114486;28;20289;-51
2023/07/20 02:04:20;;;;;;;6.05;4.60;;;16.20;99.90;;;;;;5114245;28;20523;-50
2023/07/20 02:06:46;;;;;;;6.82;4.60;;;16.20;99.90;;;;;;5114454;28;20187;-50
2023/07/20 02:09:12;;;;;;;6.57;4.75;;;16.20;99.90;;;;;;5114384;28;20180;-47
2023/07/20 02:11:37;;;;;;;11.85;5.63;;;16.10;99.90;;;;;;5113128;28;20184;-51
2023/07/20 02:14:03;;;;;;;6.95;4.70;;;16.10;99.90;;;;;;5114336;28;20172;-49
2023/07/20 02:16:28;;;;;;;7.43;5.10;;;16.10;99.90;;;;;;5114062;28;20174;-50
2023/07/20 02:18:56;;;;;;;7.72;5.00;;;16.00;99.90;;;;;;5113930;28;20225;-50
2023/07/20 02:21:22;;;;;;;9.25;5.25;;;16.10;99.90;;;;;;5114203;28;20201;-50
2023/07/20 02:23:48;;;;;;;6.28;4.93;;;16.10;99.90;;;;;;5114158;28;20637;-52
2023/07/20 02:26:14;;;;;;;7.38;4.82;;;16.00;99.90;;;;;;5114085;28;20207;-51
2023/07/20 02:28:41;;;;;;;7.10;4.85;;;16.10;99.90;;;;;;5112973;28;20172;-51
2023/07/20 02:31:07;;;;;;;5.72;4.35;;;16.00;99.90;;;;;;5114039;28;20214;-50
2023/07/20 02:33:32;;;;;;;9.23;5.72;;;16.00;99.90;;;;;;5114097;28;20181;-50
2023/07/20 02:35:58;;;;;;;7.57;4.57;;;16.10;99.90;;;;;;5113755;28;20610;-46
2023/07/20 02:38:24;;;;;;;8.05;5.18;;;16.10;99.90;;;;;;5114019;28;20165;-52
2023/07/20 02:40:50;;;;;;;6.28;5.35;;;16.00;99.90;;;;;;5113937;28;20204;-50
2023/07/20 02:43:16;;;;;;;6.32;5.35;;;16.00;99.90;;;;;;5113930;28;20184;-50
2023/07/20 02:45:44;;;;;;;7.82;5.38;;;16.00;99.90;;;;;;5113984;28;20165;-52
2023/07/20 02:48:10;;;;;;;7.63;5.53;;;16.00;99.90;;;;;;5114414;28;20198;-48
2023/07/20 02:50:36;;;;;;;6.20;5.25;;;16.00;99.90;;;;;;5117973;28;20184;-48
2023/07/20 02:53:02;;;;;;;7.57;5.93;;;16.00;99.90;;;;;;5118336;28;20165;-48
2023/07/20 02:55:28;;;;;;;6.70;4.93;;;15.90;99.90;;;;;;5118178;28;20169;-48
2023/07/20 02:57:53;;;;;;;7.18;5.57;;;16.10;99.90;;;;;;5118148;28;20180;-48
2023/07/20 03:00:19;;;;;;;7.68;5.07;;;16.10;99.90;;;;;;5118282;28;20261;-48
2023/07/20 03:02:49;;;;;;;6.75;5.13;;;16.10;99.90;;;;;;5117918;28;20168;-51
2023/07/20 03:05:16;;;;;;;5.55;4.90;;;16.00;99.90;;;;;;5117924;28;20169;-51
2023/07/20 03:07:43;;;;;;;8.88;5.70;;;15.90;99.90;;;;;;5117858;28;20177;-49
2023/07/20 03:10:09;;;;;;;7.28;5.65;;;15.90;99.90;;;;;;5117745;28;20173;-51
2023/07/20 03:12:35;;;;;;;6.53;4.80;;;15.80;99.90;;;;;;5117758;28;20621;-52
2023/07/20 03:15:05;;;;;;;6.45;5.57;;;15.80;99.90;;;;;;5117708;28;20174;-52
2023/07/20 03:17:30;;;;;;;6.55;5.47;;;15.80;99.90;;;;;;5117440;28;20166;-51
2023/07/20 03:19:56;;;;;;;6.80;5.93;;;15.80;99.90;;;;;;5117817;28;20246;-49
2023/07/20 03:22:21;;;;;;;6.60;5.25;;;15.80;99.90;;;;;;5117555;27;20578;-50
2023/07/20 03:24:47;;;;;;;7.88;6.32;;;15.70;99.90;;;;;;5117527;28;20165;-48
2023/07/20 03:27:13;;;;;;;6.30;5.70;;;15.70;99.90;;;;;;5117749;28;20180;-51
2023/07/20 03:29:39;;;;;;;7.15;6.43;;;15.70;99.90;;;;;;5117205;28;20244;-50
2023/07/20 03:32:05;;;;;;;7.68;5.82;;;15.70;99.90;;;;;;5117341;28;20657;-50
2023/07/20 03:34:31;;;;;;;10.90;7.35;;;15.70;99.90;;;;;;5117321;28;20222;-49
2023/07/20 03:36:57;;;;;;;7.88;7.07;;;15.80;99.90;;;;;;5117302;28;20550;-52
2023/07/20 03:39:23;;;;;;;7.47;6.10;;;15.90;99.90;;;;;;5117279;28;20514;-48
2023/07/20 03:41:48;;;;;;;7.28;6.57;;;16.00;99.90;;;;;;5117207;28;20240;-49
2023/07/20 03:44:14;;;;;;;7.93;7.07;;;16.00;99.90;;;;;;5117224;28;20559;-49
2023/07/20 03:46:40;;;;;;;9.10;7.22;;;16.10;99.90;;;;;;5117137;28;20170;-51
2023/07/20 03:49:06;;;;;;;7.95;6.32;;;16.10;99.90;;;;;;5117150;28;20625;-51
2023/07/20 03:51:32;;;;;;;8.50;7.18;;;16.10;99.90;;;;;;5116991;28;20199;-48
2023/07/20 03:53:58;;;;;;;9.02;7.20;;;16.10;99.90;;;;;;5116991;28;20669;-52
2023/07/20 03:56:24;;;;;;;10.73;6.85;;;16.10;99.90;;;;;;5116966;28;20177;-51
2023/07/20 03:58:50;;;;;;;7.88;6.47;;;16.10;99.90;;;;;;5116870;28;20250;-50
2023/07/20 04:01:16;;;;;;;8.15;6.63;;;16.20;99.90;;;;;;5115594;28;20654;-49
2023/07/20 04:03:42;;;;;;;10.85;7.28;;;16.20;99.90;;;;;;5116787;28;20177;-50
2023/07/20 04:06:08;;;;;;;8.23;7.30;;;16.10;99.90;;;;;;5116760;28;20303;-48
2023/07/20 04:08:37;;;;;;;8.95;7.30;;;16.10;99.90;;;;;;5116715;28;20170;-49
2023/07/20 04:11:02;;;;;;;7.88;7.00;;;16.10;99.90;;;;;;5116587;28;20306;-50
2023/07/20 04:13:28;;;;;;;8.50;7.70;;;16.00;99.90;;;;;;5116660;28;20256;-50
2023/07/20 04:15:55;;;;;;;8.45;7.50;;;16.10;99.90;;;;;;5116600;28;20620;-50
2023/07/20 04:18:20;;;;;;;11.90;7.07;;;16.20;99.90;;;;;;5116425;27;20177;-51
2023/07/20 04:20:46;;;;;;;10.10;7.30;;;16.20;99.90;;;;;;5116495;28;20220;-50
2023/07/20 04:23:12;;;;;;;9.27;7.72;;;16.20;99.90;;;;;;5116430;28;20165;-49
2023/07/20 04:25:41;;;;;;;7.75;6.63;;;16.30;99.90;;;;;;5116357;28;20177;-51
2023/07/20 04:28:09;;;;;;;7.63;6.82;;;16.30;99.90;;;;;;5116312;28;20184;-52
2023/07/20 04:30:36;;;;;;;7.82;6.60;;;16.30;99.90;;;;;;5116277;28;20174;-48
2023/07/20 04:33:03;;;;;;;9.18;6.70;;;16.30;99.90;;;;;;5116262;28;20204;-52
2023/07/20 04:35:51;;;;;;;7.03;5.97;;;16.30;99.90;;;;;;5116188;28;20195;-50
2023/07/20 04:38:18;;;;;;;8.27;7.03;;;16.40;99.90;;;;;;5116147;28;20166;-52
2023/07/20 04:40:48;;;;;;;8.07;6.68;;;16.40;99.90;;;;;;5116011;28;20193;-49
2023/07/20 04:43:15;;;;;;;9.55;6.90;;;16.40;99.90;;;;;;5116092;28;20192;-48
2023/07/20 04:45:40;;;;;;;8.10;6.80;;;16.40;99.90;;;;;;5116052;28;20173;-51
2023/07/20 04:48:14;;;;;;;8.25;6.68;;;16.50;99.90;;;;;;5115965;28;20169;-49
2023/07/20 04:50:44;;;;;;;7.63;6.43;;;16.50;99.90;;;;;;5116016;28;20162;-52
2023/07/20 04:53:11;;;;;;;8.13;5.90;;;16.50;99.90;;;;;;5115806;28;20217;-50
2023/07/20 04:55:38;;;;;;;7.40;6.05;;;16.50;99.90;;;;;;5115888;28;20204;-48
2023/07/20 04:58:04;;;;;;;8.82;5.90;;;16.50;99.90;;;;;;5115739;28;20191;-48
2023/07/20 05:00:31;;;;;;;6.88;6.13;;;16.50;99.90;;;;;;5115424;28;20306;-49
2023/07/20 05:02:57;;;;;;;6.22;5.47;;;16.50;99.90;;;;;;5115677;28;20176;-52
2023/07/20 05:05:22;;;;;;;6.85;5.68;;;16.50;99.90;;;;;;5115704;28;20169;-50
2023/07/20 05:07:48;;;;;;;6.88;6.22;;;16.60;99.90;;;;;;5115543;28;20180;-51
2023/07/20 05:10:14;;;;;;;7.35;5.90;;;16.60;99.90;;;;;;5115544;28;20176;-51
2023/07/20 05:12:39;;;;;;;9.13;6.30;;;16.70;99.90;;;;;;5115276;28;20226;-48
2023/07/20 05:15:05;;;;;;;7.00;6.15;;;16.70;99.90;;;;;;5115447;28;20252;-52
2023/07/20 05:17:31;;;;;;;8.05;6.25;;;16.70;99.90;;;;;;5115412;28;20169;-48
2023/07/20 05:19:56;;;;;;;6.70;6.10;;;16.70;99.90;;;;;;5115401;28;20217;-47
2023/07/20 05:22:24;;;;;;;7.00;6.38;;;16.70;99.90;;;;;;5115303;28;20538;-50
2023/07/20 05:24:50;;;;;;;6.60;6.00;;;16.80;99.90;;;;;;5115304;28;20206;-47
2023/07/20 05:27:15;;;;;;;6.20;5.60;;;16.70;99.90;;;;;;5115168;28;20181;-48
2023/07/20 05:29:45;;;;;;;6.65;6.05;;;16.70;99.90;;;;;;5114965;28;20609;-49
2023/07/20 05:32:11;;;;;;;6.35;5.75;;;16.90;99.90;;;;;;5115120;28;20180;-51
2023/07/20 05:34:36;;;;;;;6.20;5.60;;;17.00;99.90;;;;;;5113857;28;20177;-51
2023/07/20 05:37:02;;;;;;;6.90;6.30;;;17.10;99.90;;;;;;5114525;28;20169;-49
2023/07/20 05:39:27;;;;;;;6.43;5.82;;;17.20;99.90;;;;;;5114516;28;20174;-50
2023/07/20 05:41:53;;;;;;;6.72;5.95;;;17.20;99.90;;;;;;5114356;28;20250;-50
2023/07/20 05:44:18;;;;;;;6.72;5.30;;;17.20;99.90;;;;;;5114321;28;20618;-49
2023/07/20 05:46:44;;;;;;;6.68;5.40;;;17.30;99.90;;;;;;5114277;28;20180;-48
2023/07/20 05:49:10;;;;;;;6.00;5.07;;;17.40;99.90;;;;;;5110491;28;20188;-52
2023/07/20 05:51:36;;;;;;;7.20;5.65;;;17.40;99.90;;;;;;5113980;28;20626;-52
2023/07/20 05:54:01;;;;;;;5.43;4.75;;;17.50;99.90;;;;;;5114276;28;20181;-48
2023/07/20 05:56:27;;;;;;;5.10;4.70;;;17.60;99.90;;;;;;5114150;28;20173;-50
2023/07/20 05:58:53;;;;;;;5.13;4.60;;;17.60;99.90;;;;;;5114364;28;20169;-47
2023/07/20 06:01:19;;;;;;;5.00;4.60;;;17.50;99.90;;;;;;5112773;28;20204;-48
2023/07/20 06:03:44;;;;;;;5.57;4.93;;;17.60;99.90;;;;;;5114361;28;20598;-51
2023/07/20 06:06:11;;;;;;;5.13;4.35;;;17.70;99.90;;;;;;5114431;28;20204;-50
2023/07/20 06:08:37;;;;;;;5.80;4.30;;;17.80;99.90;;;;;;5114251;28;20177;-49
2023/07/20 06:11:03;;;;;;;4.30;3.90;;;17.90;99.90;;;;;;5114355;28;20556;-50
2023/07/20 06:13:29;;;;;;;3.67;3.38;;;17.90;99.90;;;;;;5114103;28;20195;-51
2023/07/20 06:15:55;;;;;;;3.88;3.58;;;18.00;99.90;;;;;;5114025;28;20188;-50
2023/07/20 06:18:24;;;;;;;4.07;3.22;;;18.00;99.90;;;;;;5113911;28;20398;-51
2023/07/20 06:20:51;;;;;;;3.35;3.00;;;18.00;99.90;;;;;;5114343;28;20302;-47
2023/07/20 06:23:20;;;;;;;3.65;2.78;;;18.10;99.90;;;;;;5113292;28;20181;-53
2023/07/20 06:25:45;;;;;;;2.00;1.90;;;18.00;99.90;;;;;;5114051;28;20172;-51
2023/07/20 06:28:11;;;;;;;1.30;1.20;;;17.90;99.90;;;;;;5113813;28;20177;-50
2023/07/20 06:30:37;;;;;;;1.70;1.30;;;17.80;99.90;;;;;;5113748;28;20279;-50
2023/07/20 06:33:03;;;;;;;2.05;1.10;;;17.70;99.90;;;;;;5113645;28;20165;-51
2023/07/20 06:35:28;;;;;;;2.53;1.30;;;17.60;99.90;;;;;;5113539;28;20175;-49
2023/07/20 06:37:54;;;;;;;1.70;0.80;;;17.60;99.90;;;;;;5114004;28;20166;-51
2023/07/20 06:40:20;;;;;;;1.08;0.95;;;17.70;99.90;;;;;;5113618;28;20176;-50
2023/07/20 06:42:46;;;;;;;0.90;0.90;;;17.80;99.90;;;;;;5113534;28;20552;-51
2023/07/20 06:45:12;;;;;;;1.60;1.10;;;17.80;99.90;;;;;;5114125;28;20169;-51
2023/07/20 06:47:40;;;;;;;0.80;0.73;;;18.00;99.90;;;;;;5114017;28;20222;-51
2023/07/20 06:50:07;;;;;;;1.88;1.00;;;17.90;99.90;;;;;;5113636;28;20248;-51
2023/07/20 06:52:33;;;;;;;1.40;0.90;;;18.00;99.90;;;;;;5113623;28;20176;-51
2023/07/20 06:54:59;;;;;;;1.55;0.98;;;18.20;99.90;;;;;;5113887;28;20207;-47
2023/07/20 06:57:25;;;;;;;1.02;0.93;;;18.40;99.90;;;;;;5113500;28;20197;-51
2023/07/20 06:59:51;;;;;;;2.30;1.20;;;18.50;99.90;;;;;;5113211;28;20169;-47
2023/07/20 07:02:16;;;;;;;1.55;1.45;;;18.60;99.90;;;;;;5113225;28;20251;-48
2023/07/20 07:04:42;;;;;;;1.30;1.20;;;18.60;99.90;;;;;;5113523;28;20173;-48
2023/07/20 07:07:09;;;;;;;1.55;1.20;;;18.70;99.90;;;;;;5113330;28;20185;-52
2023/07/20 07:09:35;;;;;;;1.73;0.88;;;18.80;99.90;;;;;;5113649;28;20214;-52
2023/07/20 07:12:00;;;;;;;1.08;0.80;;;18.80;99.90;;;;;;5113459;28;20170;-48
2023/07/20 07:14:26;;;;;;;1.25;1.00;;;18.80;99.90;;;;;;5113162;28;20172;-50
2023/07/20 07:16:52;;;;;;;1.10;1.00;;;18.60;99.90;;;;;;5113241;28;20178;-52
2023/07/20 07:19:17;;;;;;;0.70;0.70;;;18.60;99.90;;;;;;5113524;28;20248;-48
2023/07/20 07:21:43;;;;;;;2.40;1.00;;;18.60;99.90;;;;;;5113419;28;20239;-52
2023/07/20 07:24:09;;;;;;;2.25;1.15;;;18.60;99.90;;;;;;5113642;28;20173;-49
2023/07/20 07:26:36;;;;;;;0.88;0.88;;;18.40;99.90;;;;;;5114025;28;20498;-52
2023/07/20 07:29:01;;;;;;;1.65;1.00;;;18.50;99.90;;;;;;5113489;28;20170;-50
2023/07/20 07:31:30;;;;;;;0.68;0.68;;;19.00;99.90;;;;;;5113449;28;20196;-48
2023/07/20 07:33:56;;;;;;;1.13;0.90;;;19.20;99.90;;;;;;5113465;28;20174;-51
2023/07/20 07:36:21;;;;;;;1.52;0.90;;;19.20;99.90;;;;;;5117279;28;20176;-51
2023/07/20 07:38:47;;;;;;;0.70;0.70;;;19.30;99.90;;;;;;5117242;28;20174;-51
2023/07/20 07:41:13;;;;;;;1.75;0.70;;;19.60;99.90;;;;;;5117184;28;20299;-49
2023/07/20 07:43:39;;;;;;;1.08;0.70;;;19.80;99.90;;;;;;5117035;28;20183;-51
2023/07/20 07:46:05;;;;;;;0.70;0.60;;;19.90;99.90;;;;;;5116765;28;20260;-51
2023/07/20 07:48:31;;;;;;;2.25;1.13;;;20.00;99.90;;;;;;5117069;28;20197;-51
2023/07/20 07:50:56;;;;;;;0.77;0.60;;;20.00;99.90;;;;;;5116845;28;20180;-52
2023/07/20 07:53:22;;;;;;;0.75;0.70;;;19.90;99.90;;;;;;5116943;28;20253;-52
2023/07/20 07:55:48;;;;;;;0.95;0.50;;;19.80;99.90;;;;;;5117275;28;20177;-47
2023/07/20 07:58:14;;;;;;;0.63;0.50;;;20.00;99.90;;;;;;5116938;28;20181;-50
2023/07/20 08:00:40;;;;;;;0.90;0.60;;;20.20;99.90;;;;;;5116782;28;20209;-51
2023/07/20 08:03:08;;;;;;;1.05;0.50;;;20.10;99.90;;;;;;5116787;28;20177;-51
2023/07/20 08:05:35;;;;;;;0.60;0.50;;;20.20;99.90;;;;;;5116775;28;20567;-52
2023/07/20 08:08:04;;;;;;;0.95;0.55;;;20.00;99.90;;;;;;5116590;28;20318;-52
2023/07/20 08:10:30;;;;;;;0.80;0.70;;;20.30;99.90;;;;;;5116756;28;20173;-53
2023/07/20 08:12:55;;;;;;;1.15;0.55;;;20.70;99.90;;;;;;5116368;28;20173;-52
2023/07/20 08:15:21;;;;;;;0.65;0.60;;;20.80;99.90;;;;;;5116164;28;20541;-51
2023/07/20 08:17:48;;;;;;;0.52;0.52;;;20.90;99.90;;;;;;5115994;28;20707;-49
2023/07/20 08:20:16;;;;;;;0.63;0.60;;;20.80;99.90;;;;;;5116156;28;20307;-50
2023/07/20 08:22:41;;;;;;;0.65;0.65;;;20.70;99.90;;;;;;5116107;28;20503;-52
2023/07/20 08:25:08;;;;;;;0.40;0.40;;;20.60;99.90;;;;;;5116353;28;20231;-52
2023/07/20 08:27:34;;;;;;;0.68;0.50;;;20.30;99.90;;;;;;5116503;28;20170;-51
2023/07/20 08:30:00;;;;;;;0.80;0.65;;;20.50;99.90;;;;;;5116059;28;20661;-53
2023/07/20 08:32:26;;;;;;;1.55;0.73;;;20.30;99.90;;;;;;5115957;28;20205;-48
2023/07/20 08:34:52;;;;;;;0.40;0.40;;;20.50;99.90;;;;;;5116453;28;20170;-52
2023/07/20 08:37:18;;;;;;;0.60;0.60;;;20.50;99.90;;;;;;5116047;28;20169;-48
2023/07/20 08:39:44;;;;;;;0.75;0.55;;;20.70;99.90;;;;;;5116085;28;20197;-50
2023/07/20 08:42:10;;;;;;;0.85;0.57;;;20.80;99.90;;;;;;5115969;28;20205;-49
2023/07/20 08:44:38;;;;;;;0.60;0.60;;;20.60;99.90;;;;;;5115901;28;20211;-50
2023/07/20 08:47:05;;;;;;;1.30;0.70;;;20.40;99.90;;;;;;5115334;28;20645;-52
2023/07/20 08:49:35;;;;;;;1.40;0.70;;;20.30;99.90;;;;;;5115712;28;20234;-51
2023/07/20 08:52:03;;;;;;;0.70;0.70;;;20.70;99.90;;;;;;5115828;28;20181;-50
2023/07/20 08:54:33;;;;;;;0.80;0.63;;;20.70;99.90;;;;;;5115771;28;20166;-50
2023/07/20 08:57:02;;;;;;;0.75;0.60;;;20.70;99.90;;;;;;5115423;28;20298;-53
2023/07/20 08:59:29;;;;;;;1.42;0.70;;;20.70;99.90;;;;;;5115557;28;20161;-51
2023/07/20 09:01:57;;;;;;;0.75;0.75;;;20.50;99.90;;;;;;5115248;28;20197;-48
2023/07/20 09:04:23;;;;;;;1.30;0.70;;;20.70;99.90;;;;;;5115490;28;20174;-51
2023/07/20 09:06:50;;;;;;;0.52;0.52;;;20.60;99.90;;;;;;5115350;28;20626;-49
2023/07/20 09:09:16;;;;;;;0.85;0.52;;;20.60;99.90;;;;;;5115490;28;20181;-50
2023/07/20 09:11:42;;;;;;;1.00;0.52;;;20.70;99.90;;;;;;5115482;28;20230;-46
2023/07/20 09:14:09;;;;;;;1.10;0.63;;;20.90;99.90;;;;;;5115417;28;20165;-52
2023/07/20 09:16:51;;;;;;;1.35;0.50;;;21.20;99.90;;;;;;5115279;28;20664;-50
2023/07/20 09:19:18;;;;;;;0.60;0.52;;;21.40;99.90;;;;;;5115326;28;20232;-54
2023/07/20 09:21:51;;;;;;;1.10;0.50;;;20.90;99.90;;;;;;5115088;28;20205;-53
2023/07/20 09:24:18;;;;;;;0.65;0.52;;;20.60;99.90;;;;;;5115333;28;20200;-53
2023/07/20 09:26:48;;;;;;;0.60;0.52;;;20.30;99.90;;;;;;5115211;28;20165;-52
2023/07/20 09:29:14;;;;;;;0.65;0.60;;;20.60;99.90;;;;;;5115025;28;20178;-52
2023/07/20 09:31:40;;;;;;;1.08;0.80;;;20.90;99.90;;;;;;5115075;28;20223;-49
2023/07/20 09:34:07;;;;;;;0.70;0.70;;;20.80;99.90;;;;;;5115250;28;20278;-53
2023/07/20 09:36:38;;;;;;;0.80;0.70;;;21.00;99.90;;;;;;5114671;28;20166;-52
2023/07/20 09:39:07;;;;;;;0.82;0.70;;;21.20;99.90;;;;;;5114642;28;20173;-53
2023/07/20 09:41:42;;;;;;;1.05;0.50;;;21.10;99.90;;;;;;5114834;28;20197;-54
2023/07/20 09:44:10;;;;;;;1.00;0.63;;;21.20;99.90;;;;;;5114779;28;20276;-53
2023/07/20 09:46:46;;;;;;;1.13;0.50;;;21.30;99.90;;;;;;5114517;28;20710;-53
2023/07/20 09:49:12;;;;;;;0.55;0.50;;;21.40;99.90;;;;;;5114447;28;20568;-52
2023/07/20 09:51:39;;;;;;;1.35;0.63;;;21.40;99.90;;;;;;5114651;28;20173;-52
2023/07/20 09:54:05;;;;;;;1.83;0.68;;;21.70;99.90;;;;;;5114567;28;20645;-50
2023/07/20 09:56:32;;;;;;;1.10;0.50;;;21.60;99.90;;;;;;5114677;28;20174;-53
2023/07/20 09:58:58;;;;;;;2.78;0.73;;;22.10;99.90;;;;;;5113412;28;20638;-53
2023/07/20 10:01:26;;;;;;;1.20;0.60;;;22.50;99.90;;;;;;5113167;28;20233;-50
2023/07/20 10:03:54;;;;;;;0.90;0.60;;;22.70;99.90;;;;;;5114114;28;20630;-49
2023/07/20 10:06:32;;;;;;;1.38;0.70;;;22.30;99.90;;;;;;5114390;28;20173;-49
2023/07/20 10:09:02;;;;;;;1.77;0.60;;;22.00;99.90;;;;;;5114474;28;20157;-49
2023/07/20 10:11:34;;;;;;;1.00;0.60;;;22.00;99.90;;;;;;5114403;28;20162;-49
2023/07/20 10:14:06;;;;;;;0.73;0.60;;;22.10;99.90;;;;;;5113296;28;20165;-52
2023/07/20 10:16:36;;;;;;;0.40;0.40;;;22.40;99.90;;;;;;5114309;28;20235;-50
2023/07/20 10:19:17;;;;;;;1.05;0.95;;;22.60;99.90;;;;;;5114046;28;20321;-48
2023/07/20 10:21:51;;;;;;;1.00;0.80;;;22.60;99.90;;;;;;5114177;28;20188;-51
2023/07/20 10:24:18;;;;;;;1.48;0.60;;;22.50;99.90;;;;;;5114198;28;20165;-49
2023/07/20 10:26:44;;;;;;;1.23;1.10;;;22.60;99.90;;;;;;5113740;28;20265;-48
2023/07/20 10:29:11;;;;;;;1.83;1.40;;;22.50;99.90;;;;;;5113267;28;20252;-48
2023/07/20 10:31:38;;;;;;;1.88;1.45;;;22.70;99.90;;;;;;5112454;28;20200;-48
2023/07/20 10:34:04;;;;;;;1.35;1.25;;;22.50;99.90;;;;;;5113821;28;20699;-50
2023/07/20 10:36:30;;;;;;;2.17;1.20;;;22.50;99.90;;;;;;5113950;28;20169;-50
2023/07/20 10:38:57;;;;;;;1.20;1.10;;;22.40;99.90;;;;;;5113936;28;20702;-52
2023/07/20 10:41:33;;;;;;;1.85;1.42;;;22.40;99.90;;;;;;5113833;28;20233;-51
2023/07/20 10:44:01;;;;;;;1.55;1.38;;;22.30;99.90;;;;;;5114050;28;20157;-48
2023/07/20 10:46:41;;;;;;;2.13;1.30;;;22.20;99.90;;;;;;5113852;28;20169;-51
2023/07/20 10:49:09;;;;;;;2.17;1.52;;;22.40;99.90;;;;;;5113872;28;20253;-47
2023/07/20 10:51:45;;;;;;;2.03;1.27;;;22.40;99.90;;;;;;5113823;28;20622;-52
2023/07/20 10:54:17;;;;;;;1.60;1.50;;;22.50;99.90;;;;;;5113952;28;20158;-52
2023/07/20 10:56:48;;;;;;;1.58;1.48;;;22.70;99.90;;;;;;5114144;28;20165;-50
2023/07/20 10:59:38;;;;;;;1.52;1.42;;;22.70;99.90;;;;;;5113599;28;20208;-52
2023/07/20 11:02:10;;;;;;;1.80;1.70;;;22.80;99.90;;;;;;5113744;28;20208;-48
2023/07/20 11:04:43;;;;;;;1.75;1.65;;;22.60;99.90;;;;;;5113740;28;20169;-51
2023/07/20 11:07:09;;;;;;;1.80;1.70;;;22.60;99.90;;;;;;5114008;28;20178;-51
2023/07/20 11:09:36;;;;;;;3.42;1.90;;;22.40;99.90;;;;;;5114892;28;20179;-47
2023/07/20 11:12:16;;;;;;;4.05;1.60;;;22.60;99.90;;;;;;5117769;28;20189;-50
2023/07/20 11:14:56;;;;;;;1.50;1.40;;;22.40;99.90;;;;;;5117750;28;20176;-48
2023/07/20 11:17:31;;;;;;;2.30;1.30;;;22.30;99.90;;;;;;5117694;28;20264;-49
2023/07/20 11:20:01;;;;;;;2.25;1.55;;;22.50;99.90;;;;;;5117417;28;20636;-50
2023/07/20 11:22:27;;;;;;;1.50;1.40;;;22.90;99.90;;;;;;5117267;28;20205;-48
2023/07/20 11:24:56;;;;;;;1.70;1.60;;;23.30;99.90;;;;;;5117560;28;20576;-51
2023/07/20 11:27:25;;;;;;;1.58;1.48;;;23.50;99.90;;;;;;5117517;28;20175;-51
2023/07/20 11:29:50;;;;;;;1.60;1.50;;;23.40;99.90;;;;;;5117473;28;20240;-51
2023/07/20 11:32:24;;;;;;;1.65;1.52;;;23.20;99.90;;;;;;5117415;28;20264;-50
2023/07/20 11:34:50;;;;;;;3.72;2.20;;;23.10;99.90;;;;;;5117364;28;20170;-46
2023/07/20 11:37:17;;;;;;;2.40;1.73;;;22.80;99.90;;;;;;5117548;28;20177;-47
2023/07/20 11:39:42;;;;;;;2.05;1.85;;;22.60;99.90;;;;;;5116978;28;20534;-49
2023/07/20 11:42:08;;;;;;;2.10;2.00;;;22.50;99.90;;;;;;5117145;28;20212;-48
2023/07/20 11:44:34;;;;;;;1.92;1.70;;;22.30;99.90;;;;;;5117177;28;20186;-47
2023/07/20 11:47:12;;;;;;;1.70;1.60;;;22.00;99.90;;;;;;5117204;28;20673;-49
2023/07/20 11:49:42;;;;;;;1.80;1.70;;;21.80;99.90;;;;;;5117024;28;20165;-47
2023/07/20 11:52:10;;;;;;;2.17;1.70;;;21.70;99.90;;;;;;5116860;28;20268;-50
2023/07/20 11:54:38;;;;;;;2.28;1.85;;;21.40;99.90;;;;;;5116987;28;20173;-49
2023/07/20 11:57:05;;;;;;;2.30;2.10;;;21.20;99.90;;;;;;5116635;28;20630;-48
2023/07/20 11:59:31;;;;;;;2.22;2.13;;;21.00;99.90;;;;;;5116860;28;20638;-49
2023/07/20 12:01:58;;;;;;;2.40;2.20;;;21.10;99.90;;;;;;5116663;28;20684;-51
2023/07/20 12:04:24;;;;;;;2.47;2.30;;;21.20;99.90;;;;;;5116457;28;20177;-52
2023/07/20 12:06:50;;;;;;;2.97;2.78;;;21.10;99.90;;;;;;5116732;28;20185;-50
2023/07/20 12:09:17;;;;;;;3.08;2.80;;;21.00;99.90;;;;;;5116980;28;20260;-51
2023/07/20 12:11:45;;;;;;;3.00;2.70;;;20.90;99.90;;;;;;5116617;28;20180;-50
2023/07/20 12:14:10;;;;;;;3.42;3.22;;;20.90;99.90;;;;;;5116541;28;20170;-47
2023/07/20 12:16:38;;;;;;;4.65;3.53;;;20.90;99.90;;;;;;5115843;28;20523;-50
2023/07/20 12:19:08;;;;;;;3.00;2.67;;;20.90;99.90;;;;;;5116228;28;20228;-51
2023/07/20 12:21:37;;;;;;;3.33;2.90;;;20.90;99.90;;;;;;5115447;28;20221;-48
2023/07/20 12:24:04;;;;;;;3.45;3.15;;;21.10;99.90;;;;;;5116404;28;20185;-49
2023/07/20 12:26:31;;;;;;;2.70;2.50;;;21.30;99.90;;;;;;5116223;28;20173;-51
2023/07/20 12:28:57;;;;;;;2.95;2.75;;;21.10;99.90;;;;;;5116378;28;20198;-47
2023/07/20 12:31:26;;;;;;;2.85;2.65;;;21.30;99.90;;;;;;5115128;28;20181;-47
2023/07/20 12:33:52;;;;;;;3.00;2.80;;;21.30;99.90;;;;;;5116230;28;20436;-47
2023/07/20 12:36:18;;;;;;;2.65;2.47;;;21.20;99.90;;;;;;5116226;28;20519;-49
2023/07/20 12:38:44;;;;;;;3.08;2.78;;;21.20;99.90;;;;;;5115847;28;20580;-47
2023/07/20 12:41:14;;;;;;;3.47;2.92;;;21.10;99.90;;;;;;5116041;28;20193;-48
2023/07/20 12:43:44;;;;;;;3.03;2.70;;;21.10;99.90;;;;;;5116081;28;20173;-50
2023/07/20 12:46:13;;;;;;;3.22;3.00;;;21.00;99.90;;;;;;5115991;28;20165;-50
2023/07/20 12:48:41;;;;;;;2.97;2.78;;;21.00;99.90;;;;;;5115706;28;20176;-51